createdAt,value
2023-02-22T00:03:16.485Z,42.75
2023-02-22T00:08:19.593Z,38.92
2023-02-22T00:13:23.312Z,37.15
2023-02-22T00:18:29.009Z,44.47
2023-02-22T00:23:32.538Z,43.53
2023-02-22T00:28:36.916Z,40.70
2023-02-22T00:33:41.673Z,42.13
2023-02-22T00:38:44.842Z,43.42
2023-02-22T00:43:48.930Z,47.17
2023-02-22T00:48:54.819Z,44.78
2023-02-22T00:53:57.941Z,48.05
2023-02-22T00:59:01.755Z,47.42
2023-02-22T01:04:07.109Z,51.33
2023-02-22T01:09:10.404Z,50.75
2023-02-22T01:14:13.548Z,51.10
2023-02-22T01:19:19.421Z,46.20
2023-02-22T01:24:23.041Z,51.08
2023-02-22T01:29:26.408Z,43.78
2023-02-22T01:34:33.045Z,47.05
2023-02-22T01:39:36.259Z,50.10
2023-02-22T01:44:41.501Z,50.50
2023-02-22T01:49:49.215Z,45.47
2023-02-22T01:54:53.802Z,53.38
2023-02-22T01:59:58.686Z,44.25
2023-02-22T02:05:08.297Z,48.10
2023-02-22T02:10:14.552Z,45.35
2023-02-22T02:15:19.461Z,44.92
2023-02-22T02:20:26.538Z,46.53
2023-02-22T02:25:46.962Z,47.92
2023-02-22T02:30:57.735Z,39.83
2023-02-22T02:36:04.037Z,45.30
2023-02-22T02:41:10.765Z,45.67
2023-02-22T02:46:16.600Z,53.03
2023-02-22T02:51:22.129Z,47.50
2023-02-22T02:56:26.652Z,51.08
2023-02-22T03:01:38.859Z,51.55
2023-02-22T03:06:52.587Z,53.80
2023-02-22T03:12:01.437Z,52.97
2023-02-22T03:17:12.258Z,49.53
2023-02-22T03:22:19.797Z,57.30
2023-02-22T03:27:24.968Z,58.17
2023-02-22T03:32:31.892Z,55.17
2023-02-22T03:37:40.513Z,52.97
2023-02-22T03:42:47.747Z,54.58
2023-02-22T03:47:54.262Z,53.20
2023-02-22T03:52:59.408Z,57.28
2023-02-22T03:58:06.465Z,55.13
2023-02-22T04:03:09.904Z,54.28
2023-02-22T04:08:14.482Z,52.50
2023-02-22T04:13:17.876Z,60.65
2023-02-22T04:18:23.930Z,57.20
2023-02-22T04:23:29.376Z,58.10
2023-02-22T04:28:34.034Z,54.33
2023-02-22T04:33:46.223Z,56.90
2023-02-22T04:38:55.169Z,61.13
2023-02-22T04:43:58.416Z,58.50
2023-02-22T04:49:03.065Z,61.95
2023-02-22T04:54:10.782Z,57.70
2023-02-22T04:59:19.769Z,62.85
2023-02-22T05:04:30.577Z,70.80
2023-02-22T05:09:35.058Z,64.63
2023-02-22T05:14:38.259Z,69.93
2023-02-22T05:19:42.092Z,75.28
2023-02-22T05:24:46.596Z,73.68
2023-02-22T05:29:49.729Z,77.32
2023-02-22T05:34:52.806Z,71.50
2023-02-22T05:39:57.340Z,76.78
2023-02-22T05:45:00.603Z,81.68
2023-02-22T05:50:03.770Z,84.55
2023-02-22T05:55:08.962Z,78.20
2023-02-22T06:00:16.621Z,72.25
2023-02-22T06:05:19.876Z,73.35
2023-02-22T06:10:24.668Z,82.25
2023-02-22T06:15:28.288Z,84.45
2023-02-22T06:20:31.436Z,96.97
2023-02-22T06:25:36.566Z,98.80
2023-02-22T06:30:41.193Z,82.20
2023-02-22T06:35:45.222Z,94.72
2023-02-22T06:40:49.922Z,88.00
2023-02-22T06:45:53.249Z,74.45
2023-02-22T06:50:56.379Z,66.32
2023-02-22T06:56:01.090Z,79.75
2023-02-22T07:01:04.392Z,70.63
2023-02-22T07:06:07.783Z,70.60
2023-02-22T07:11:12.367Z,63.42
2023-02-22T07:16:15.552Z,68.65
2023-02-22T07:21:19.376Z,61.92
2023-02-22T07:26:24.557Z,69.45
2023-02-22T07:31:29.629Z,69.80
2023-02-22T07:36:33.037Z,65.25
2023-02-22T07:41:37.693Z,77.75
2023-02-22T07:46:51.298Z,83.35
2023-02-22T07:51:54.468Z,84.57
2023-02-22T07:56:59.324Z,73.75
2023-02-22T08:02:02.853Z,85.80
2023-02-22T08:07:06.082Z,176.00
2023-02-22T08:12:10.880Z,89.78
2023-02-22T08:17:14.274Z,72.03
2023-02-22T08:22:17.906Z,81.05
2023-02-22T08:27:26.218Z,71.72
2023-02-22T08:32:29.661Z,71.43
2023-02-22T08:37:33.158Z,81.78
2023-02-22T08:42:38.169Z,85.30
2023-02-22T08:47:41.837Z,89.32
2023-02-22T08:52:45.230Z,82.78
2023-02-22T08:57:50.797Z,89.90
2023-02-22T09:02:54.579Z,78.28
2023-02-22T09:07:58.021Z,73.38
2023-02-22T09:13:04.141Z,71.45
2023-02-22T09:18:08.585Z,73.95
2023-02-22T09:23:12.420Z,71.22
2023-02-22T09:28:17.504Z,85.60
2023-02-22T09:33:21.769Z,64.18
2023-02-22T09:38:26.277Z,65.25
2023-02-22T09:43:36.833Z,65.75
2023-02-22T09:48:47.313Z,53.33
2023-02-22T09:53:52.507Z,54.17
2023-02-22T09:59:00.707Z,58.25
2023-02-22T10:04:06.812Z,56.70
2023-02-22T10:09:11.244Z,62.65
2023-02-22T10:14:28.472Z,57.45
2023-02-22T10:19:38.723Z,55.65
2023-02-22T10:24:48.008Z,44.40
2023-02-22T10:29:54.459Z,53.80
2023-02-22T10:34:59.193Z,50.33
2023-02-22T10:40:12.770Z,47.97
2023-02-22T10:45:20.820Z,52.47
2023-02-22T10:50:24.200Z,58.33
2023-02-22T10:55:27.400Z,53.33
2023-02-22T11:00:37.282Z,52.47
2023-02-22T11:05:41.667Z,46.42
2023-02-22T11:10:45.064Z,44.00
2023-02-22T11:15:50.428Z,45.83
2023-02-22T11:21:00.559Z,51.47
2023-02-22T11:26:06.698Z,46.17
2023-02-22T11:31:13.310Z,44.78
2023-02-22T11:36:30.862Z,40.70
2023-02-22T11:41:35.489Z,45.70
2023-02-22T11:46:42.015Z,41.47
2023-02-22T11:51:50.055Z,42.97
2023-02-22T11:56:56.000Z,47.55
2023-02-22T12:02:06.240Z,45.22
2023-02-22T12:07:25.900Z,44.93
2023-02-22T12:12:32.274Z,41.83
2023-02-22T12:17:48.141Z,48.83
2023-02-22T12:23:02.235Z,42.85
2023-02-22T12:28:24.332Z,45.35
2023-02-22T12:33:30.817Z,42.10
2023-02-22T12:38:37.390Z,44.60
2023-02-22T12:43:42.379Z,36.20
2023-02-22T12:48:48.892Z,33.13
2023-02-22T12:53:56.291Z,29.65
2023-02-22T12:59:03.075Z,33.22
2023-02-22T13:04:20.146Z,30.55
2023-02-22T13:09:39.807Z,34.67
2023-02-22T13:14:49.051Z,29.98
2023-02-22T13:19:57.253Z,29.88
2023-02-22T13:25:03.459Z,34.10
2023-02-22T13:30:08.476Z,33.67
2023-02-22T13:35:26.623Z,38.17
2023-02-22T13:40:49.631Z,36.10
2023-02-22T13:46:06.420Z,38.47
2023-02-22T13:51:12.179Z,35.47
2023-02-22T13:56:17.597Z,36.85
2023-02-22T14:01:39.382Z,33.80
2023-02-22T14:06:43.342Z,40.28
2023-02-22T14:11:48.462Z,40.70
2023-02-22T14:17:17.174Z,36.75
2023-02-22T14:22:26.944Z,38.15
2023-02-22T14:27:41.612Z,35.67
2023-02-22T14:32:44.891Z,34.40
2023-02-22T14:37:50.932Z,37.20
2023-02-22T14:43:01.288Z,47.08
2023-02-22T14:48:13.807Z,35.67
2023-02-22T14:53:22.081Z,33.55
2023-02-22T14:58:29.873Z,37.72
2023-02-22T15:03:37.603Z,37.75
2023-02-22T15:08:41.842Z,33.40
2023-02-22T15:13:52.424Z,33.38
2023-02-22T15:18:56.587Z,25.80
2023-02-22T15:24:02.100Z,46.10
2023-02-22T15:29:09.215Z,35.63
2023-02-22T15:34:22.253Z,38.65
2023-02-22T15:39:27.278Z,33.35
2023-02-22T15:44:35.617Z,33.13
2023-02-22T15:49:38.915Z,34.40
2023-02-22T15:54:43.886Z,29.75
2023-02-22T15:59:51.771Z,29.73
2023-02-22T16:04:59.891Z,26.02
2023-02-22T16:10:09.415Z,31.83
2023-02-22T16:15:17.830Z,30.88
2023-02-22T16:20:35.684Z,29.88
2023-02-22T16:25:39.714Z,29.17
2023-02-22T16:30:44.932Z,34.67
2023-02-22T16:35:52.810Z,25.95
2023-02-22T16:40:58.551Z,28.65
2023-02-22T16:46:04.429Z,30.40
2023-02-22T16:51:09.401Z,28.65
2023-02-22T16:56:16.607Z,31.38
2023-02-22T17:01:23.448Z,33.08
2023-02-22T17:06:26.742Z,32.90
2023-02-22T17:11:30.497Z,40.53
2023-02-22T17:16:35.126Z,41.75
2023-02-22T17:21:38.388Z,41.78
2023-02-22T17:26:41.617Z,32.42
2023-02-22T17:31:46.451Z,41.05
2023-02-22T17:36:49.837Z,33.33
2023-02-22T17:41:57.615Z,39.47
2023-02-22T17:47:02.286Z,36.00
2023-02-22T17:52:06.580Z,39.15
2023-02-22T17:57:09.936Z,61.85
2023-02-22T18:02:14.774Z,40.72
2023-02-22T18:07:19.866Z,35.40
2023-02-22T18:12:23.120Z,38.10
2023-02-22T18:17:28.013Z,40.30
2023-02-22T18:22:31.304Z,42.13
2023-02-22T18:27:34.627Z,44.25
2023-02-22T18:32:39.286Z,49.70
2023-02-22T18:37:44.741Z,48.17
2023-02-22T18:42:48.206Z,45.05
2023-02-22T18:47:53.083Z,48.22
2023-02-22T18:52:56.518Z,48.58
2023-02-22T18:58:00.993Z,47.78
2023-02-22T19:03:06.914Z,56.22
2023-02-22T19:08:11.563Z,57.42
2023-02-22T19:13:15.220Z,62.25
2023-02-22T19:18:20.635Z,57.35
2023-02-22T19:23:23.910Z,63.72
2023-02-22T19:28:34.328Z,57.00
2023-02-22T19:33:39.018Z,67.70
2023-02-22T19:38:42.671Z,61.63
2023-02-22T19:43:46.159Z,59.97
2023-02-22T19:48:51.130Z,77.80
2023-02-22T19:53:55.092Z,73.43
2023-02-22T19:58:58.959Z,77.60
2023-02-22T20:04:04.786Z,89.10
2023-02-22T20:09:09.310Z,84.38
2023-02-22T20:14:17.443Z,88.15
2023-02-22T20:19:22.855Z,82.40
2023-02-22T20:24:28.157Z,82.53
2023-02-22T20:29:31.502Z,96.85
2023-02-22T20:34:36.445Z,86.00
2023-02-22T20:39:39.944Z,90.47
2023-02-22T20:44:43.579Z,98.10
2023-02-22T20:49:48.229Z,89.70
2023-02-22T20:54:51.651Z,92.47
2023-02-22T20:59:55.265Z,101.57
2023-02-22T21:05:00.018Z,101.47
2023-02-22T21:10:06.159Z,103.63
2023-02-22T21:15:10.045Z,104.25
2023-02-22T21:20:15.652Z,109.90
2023-02-22T21:25:18.909Z,103.85
2023-02-22T21:30:22.567Z,149.50
2023-02-22T21:35:27.278Z,102.65
2023-02-22T21:40:30.465Z,102.68
2023-02-22T21:45:34.514Z,117.53
2023-02-22T21:50:39.414Z,102.43
2023-02-22T21:55:44.338Z,103.13
2023-02-22T22:00:47.624Z,99.93
2023-02-22T22:05:52.346Z,120.97
2023-02-22T22:10:55.939Z,104.63
2023-02-22T22:16:03.570Z,119.25
2023-02-22T22:21:11.232Z,116.97
2023-02-22T22:26:15.331Z,100.28
2023-02-22T22:31:20.985Z,99.57
2023-02-22T22:36:27.358Z,113.60
2023-02-22T22:41:30.478Z,116.70
2023-02-22T22:46:33.596Z,111.53
2023-02-22T22:51:38.440Z,113.45
2023-02-22T22:56:41.526Z,122.35
2023-02-22T23:01:45.318Z,129.82
2023-02-22T23:06:50.839Z,108.03
2023-02-22T23:11:55.076Z,112.63
2023-02-22T23:17:03.171Z,107.05
2023-02-22T23:22:08.388Z,111.85
2023-02-22T23:27:12.326Z,115.93
2023-02-22T23:32:15.610Z,113.68
2023-02-22T23:37:20.762Z,110.05
2023-02-22T23:42:23.975Z,100.10
2023-02-22T23:47:31.728Z,105.88
2023-02-22T23:52:37.410Z,108.30
2023-02-22T23:57:43.160Z,108.43
